createdAt,value
2023-03-21T08:32:19.102Z,8.72
2023-03-21T08:35:24.088Z,8.72
2023-03-21T08:38:30.219Z,8.75
2023-03-21T08:41:37.251Z,8.76
2023-03-21T08:44:41.651Z,8.77
2023-03-21T08:47:47.152Z,8.81
2023-03-21T08:50:51.756Z,8.84
2023-03-21T08:53:56.700Z,8.88
2023-03-21T08:57:01.045Z,8.90
2023-03-21T09:00:17.742Z,8.91
2023-03-21T09:03:22.172Z,8.86
2023-03-21T09:06:27.510Z,8.89
2023-03-21T09:09:32.465Z,8.95
2023-03-21T09:12:37.322Z,8.94
2023-03-21T09:15:41.854Z,8.97
2023-03-21T09:18:48.894Z,9.00
2023-03-21T09:22:00.027Z,9.05
2023-03-21T09:25:11.789Z,9.06
2023-03-21T09:28:18.063Z,9.13
2023-03-21T09:31:23.622Z,9.10
2023-03-21T09:34:31.737Z,9.14
2023-03-21T09:37:38.476Z,9.13
2023-03-21T09:40:53.166Z,9.11
2023-03-21T09:44:24.757Z,9.07
2023-03-21T09:47:37.739Z,9.15
2023-03-21T09:50:43.606Z,9.22
2023-03-21T09:53:51.651Z,9.26
2023-03-21T09:57:01.287Z,9.33
2023-03-21T10:00:19.338Z,9.41
2023-03-21T10:03:30.597Z,9.48
2023-03-21T10:06:41.165Z,9.48
2023-03-21T10:09:48.395Z,9.56
2023-03-21T10:12:56.402Z,9.54
2023-03-21T10:16:22.023Z,9.55
2023-03-21T10:19:28.666Z,9.53
2023-03-21T10:22:34.826Z,9.58
2023-03-21T10:25:50.616Z,9.59
2023-03-21T10:29:00.004Z,9.52
2023-03-21T10:32:05.461Z,9.58
2023-03-21T10:35:13.995Z,9.58
2023-03-21T10:38:23.509Z,9.65
2023-03-21T10:41:28.212Z,9.56
2023-03-21T10:44:35.643Z,9.56
2023-03-21T10:47:42.644Z,9.55
2023-03-21T10:50:56.369Z,9.56
2023-03-21T10:54:13.122Z,9.58
2023-03-21T10:57:23.285Z,9.57
2023-03-21T11:00:41.390Z,9.61
2023-03-21T11:03:48.594Z,9.57
2023-03-21T11:07:02.182Z,9.57
2023-03-21T11:10:29.250Z,9.59
2023-03-21T11:13:42.876Z,9.62
2023-03-21T11:16:49.667Z,9.78
2023-03-21T11:20:05.693Z,9.80
2023-03-21T11:23:30.043Z,9.87
2023-03-21T11:26:37.750Z,9.92
2023-03-21T11:29:50.227Z,9.93
2023-03-21T11:33:03.668Z,9.97
2023-03-21T11:36:19.207Z,9.98
2023-03-21T11:39:34.386Z,10.00
2023-03-21T11:42:45.767Z,10.02
2023-03-21T11:46:16.698Z,10.07
2023-03-21T11:49:26.487Z,10.02
2023-03-21T11:53:04.715Z,9.97
2023-03-21T11:56:26.518Z,10.01
2023-03-21T12:00:14.414Z,9.96
2023-03-21T12:03:47.291Z,10.00
2023-03-21T12:07:03.783Z,9.94
2023-03-21T12:10:52.337Z,10.01
2023-03-21T12:14:53.568Z,10.03
2023-03-21T12:18:11.913Z,10.03
2023-03-21T12:21:35.007Z,10.04
2023-03-21T12:25:10.579Z,10.02
2023-03-21T12:29:38.243Z,10.10
2023-03-21T12:33:13.704Z,10.12
2023-03-21T12:36:24.632Z,10.10
2023-03-21T12:39:36.460Z,10.23
2023-03-21T12:42:57.356Z,10.24
2023-03-21T12:46:09.596Z,10.19
2023-03-21T12:49:38.484Z,10.17
2023-03-21T12:52:48.316Z,10.21
2023-03-21T12:55:57.315Z,10.22
2023-03-21T12:59:11.105Z,10.26
2023-03-21T13:02:40.711Z,10.23
2023-03-21T13:06:03.723Z,10.20
2023-03-21T13:09:28.554Z,10.20
2023-03-21T13:13:13.803Z,10.16
2023-03-21T13:16:36.722Z,10.20
2023-03-21T13:19:57.592Z,10.19
2023-03-21T13:23:03.640Z,10.13
2023-03-21T13:26:11.336Z,10.18
2023-03-21T13:29:21.753Z,10.19
2023-03-21T13:32:34.457Z,10.23
2023-03-21T13:35:46.016Z,10.24
2023-03-21T13:38:54.858Z,10.25
2023-03-21T13:42:06.147Z,10.21
2023-03-21T13:45:23.537Z,10.26
2023-03-21T13:49:00.681Z,10.22
2023-03-21T13:52:12.213Z,10.23
2023-03-21T13:55:49.760Z,10.34
2023-03-21T13:59:02.729Z,10.24
2023-03-21T14:02:34.145Z,10.22
2023-03-21T14:05:41.330Z,10.19
2023-03-21T14:08:49.002Z,10.18
2023-03-21T14:12:18.749Z,10.22
2023-03-21T14:15:55.886Z,10.10
2023-03-21T14:19:05.582Z,10.17
2023-03-21T14:22:13.675Z,10.15
2023-03-21T14:25:34.026Z,10.12
2023-03-21T14:28:51.107Z,10.10
2023-03-21T14:31:57.660Z,10.11
2023-03-21T14:35:02.819Z,10.09
2023-03-21T14:38:22.034Z,10.08
2023-03-21T14:41:30.010Z,10.20
2023-03-21T14:44:52.860Z,10.20
2023-03-21T14:48:07.660Z,10.21
2023-03-21T14:51:12.714Z,10.17
2023-03-21T14:54:19.788Z,10.05
2023-03-21T14:57:29.036Z,10.04
2023-03-21T15:00:35.587Z,10.03
2023-03-21T15:03:40.798Z,9.95
2023-03-21T15:06:57.944Z,10.01
2023-03-21T15:10:08.584Z,10.05
2023-03-21T15:13:20.774Z,10.10
2023-03-21T15:16:25.932Z,10.19
2023-03-21T15:19:38.010Z,10.23
2023-03-21T15:22:51.105Z,10.15
2023-03-21T15:25:56.512Z,10.13
2023-03-21T15:29:00.861Z,10.13
2023-03-21T15:32:12.661Z,10.19
2023-03-21T15:35:25.342Z,10.16
2023-03-21T15:41:45.579Z,10.11
2023-03-21T15:45:16.587Z,10.09
2023-03-21T15:49:08.920Z,10.08
2023-03-21T15:57:29.699Z,10.03
2023-03-21T16:01:28.674Z,10.02
2023-03-21T16:05:35.483Z,10.01
2023-03-21T16:10:00.913Z,10.00
2023-03-21T16:18:38.426Z,9.98
2023-03-21T16:39:26.813Z,9.95
2023-03-21T16:42:50.945Z,9.86
2023-03-21T16:57:13.337Z,9.84
2023-03-21T17:09:30.562Z,9.68
2023-03-21T17:12:48.879Z,9.64
2023-03-21T17:19:54.729Z,9.66
2023-03-21T17:47:49.004Z,9.48
2023-03-21T17:51:37.277Z,9.57
2023-03-21T17:55:27.276Z,9.52
2023-03-21T18:02:07.095Z,9.55
2023-03-21T18:08:25.370Z,9.50
2023-03-21T18:11:49.175Z,9.50
2023-03-21T18:15:52.845Z,9.49
2023-03-21T18:19:55.867Z,9.45
2023-03-21T18:44:09.346Z,9.40
2023-03-21T18:48:06.804Z,9.43
2023-03-21T18:57:33.913Z,9.45
2023-03-21T19:00:41.265Z,9.46
2023-03-21T19:04:30.190Z,9.48
2023-03-21T19:45:21.440Z,9.57
2023-03-21T19:53:58.636Z,9.60
2023-03-21T20:02:34.961Z,9.58
2023-03-21T20:05:41.366Z,9.62
2023-03-21T20:09:34.051Z,9.68
2023-03-21T20:12:12.200Z,9.66
2023-03-21T20:15:19.974Z,9.68
2023-03-21T20:18:28.958Z,9.68
2023-03-21T20:21:45.286Z,9.68
2023-03-21T20:24:52.771Z,9.75
2023-03-21T20:28:14.533Z,9.71
2023-03-21T20:31:20.356Z,9.71
2023-03-21T20:34:24.639Z,9.71
2023-03-21T20:37:32.754Z,9.74
2023-03-21T20:40:40.191Z,9.76
2023-03-21T20:44:36.402Z,9.71
2023-03-21T20:47:17.125Z,9.72
2023-03-21T20:50:23.063Z,9.74
2023-03-21T20:53:37.859Z,9.73
2023-03-21T20:56:44.412Z,9.74
2023-03-21T20:59:49.583Z,9.73
2023-03-21T21:06:33.038Z,9.74
2023-03-21T21:09:40.286Z,9.75
2023-03-21T21:12:45.414Z,9.75
2023-03-21T21:15:54.594Z,9.75
2023-03-21T21:19:00.878Z,9.75
2023-03-21T21:22:06.516Z,9.74
2023-03-21T21:25:11.405Z,9.76
2023-03-21T21:28:15.839Z,9.75
2023-03-21T21:31:21.602Z,9.73
2023-03-21T21:34:26.669Z,9.73
2023-03-21T21:37:33.994Z,9.72
2023-03-21T21:40:38.598Z,9.73
2023-03-21T21:43:43.226Z,9.74
2023-03-21T21:46:47.974Z,9.73
2023-03-21T21:49:52.884Z,9.71
2023-03-21T21:52:57.842Z,9.75
2023-03-21T21:56:06.503Z,9.69
2023-03-21T21:59:11.042Z,9.73
2023-03-21T22:02:18.131Z,9.70
2023-03-21T22:05:25.519Z,9.74
2023-03-21T22:08:31.302Z,9.75
2023-03-21T22:11:37.281Z,9.68
2023-03-21T22:14:42.056Z,9.71
2023-03-21T22:17:46.434Z,9.73
2023-03-21T22:20:54.867Z,9.73
2023-03-21T22:23:59.476Z,9.65
2023-03-21T22:27:04.470Z,9.58
2023-03-21T22:30:13.820Z,9.55
2023-03-21T22:33:19.957Z,9.52
2023-03-21T22:36:24.983Z,9.48
2023-03-21T22:39:29.375Z,9.45
2023-03-21T22:42:39.664Z,9.40
2023-03-21T22:45:43.823Z,9.39
2023-03-21T22:48:48.611Z,9.38
2023-03-21T22:51:54.340Z,9.33
2023-03-21T22:55:00.089Z,9.29
2023-03-21T22:58:09.370Z,9.27
2023-03-21T23:01:14.225Z,9.21
2023-03-21T23:04:20.275Z,9.21
2023-03-21T23:07:24.681Z,9.20
2023-03-21T23:10:29.982Z,9.15
2023-03-21T23:13:34.318Z,9.16
2023-03-21T23:16:38.736Z,9.14
2023-03-21T23:19:43.382Z,9.07
2023-03-21T23:22:47.586Z,9.08
2023-03-21T23:25:52.475Z,9.04
2023-03-21T23:28:57.497Z,9.00
2023-03-21T23:32:01.889Z,8.96
2023-03-21T23:35:07.281Z,8.93
2023-03-21T23:38:11.918Z,8.88
2023-03-21T23:41:23.182Z,8.86
2023-03-21T23:44:28.999Z,8.82
2023-03-21T23:47:39.942Z,8.79
2023-03-21T23:50:44.782Z,8.81
2023-03-21T23:53:50.137Z,8.82
2023-03-21T23:56:57.641Z,8.82
